createdAt,value
2022-11-02T09:46:19.023Z,38.92
2022-11-02T09:48:51.252Z,28.88
2022-11-02T09:51:26.642Z,34.63
2022-11-02T09:54:14.655Z,33.80
2022-11-02T09:56:44.528Z,32.58
2022-11-02T09:59:15.810Z,34.13
2022-11-02T10:02:02.875Z,35.58
2022-11-02T10:04:57.015Z,29.67
2022-11-02T10:07:29.038Z,38.80
2022-11-02T10:10:34.045Z,31.55
2022-11-02T10:13:00.676Z,26.30
2022-11-02T10:15:41.376Z,26.45
2022-11-02T10:18:16.286Z,31.57
2022-11-02T10:20:46.463Z,28.60
2022-11-02T10:23:25.416Z,28.88
2022-11-02T10:25:52.590Z,31.50
2022-11-02T10:28:25.210Z,31.02
2022-11-02T10:30:54.396Z,24.70
2022-11-02T10:33:26.969Z,24.10
2022-11-02T10:36:21.965Z,34.47
2022-11-02T10:39:03.518Z,25.83
2022-11-02T10:44:54.700Z,28.75
2022-11-02T10:47:33.443Z,33.17
2022-11-02T10:50:18.406Z,22.45
2022-11-02T10:52:46.624Z,22.92
2022-11-02T10:55:29.870Z,25.38
2022-11-02T10:58:00.721Z,20.50
2022-11-02T11:00:32.056Z,26.52
2022-11-02T11:03:17.764Z,25.52
2022-11-02T11:05:50.199Z,22.63
2022-11-02T11:08:43.235Z,21.05
2022-11-02T11:11:35.859Z,19.85
2022-11-02T11:20:07.627Z,19.30
2022-11-02T11:25:28.223Z,19.13
2022-11-02T11:27:59.870Z,20.88
2022-11-02T11:33:21.111Z,19.67
2022-11-02T11:35:50.262Z,24.50
2022-11-02T11:38:21.359Z,17.33
2022-11-02T11:40:59.712Z,15.40
2022-11-02T11:43:30.531Z,14.40
2022-11-02T11:46:06.484Z,12.52
2022-11-02T11:48:49.232Z,14.23
2022-11-02T11:51:43.369Z,20.30
2022-11-02T11:54:34.306Z,15.98
2022-11-02T11:57:31.689Z,22.58
2022-11-02T12:00:05.292Z,22.38
2022-11-02T12:02:44.041Z,19.13
2022-11-02T12:05:17.958Z,13.10
2022-11-02T12:08:14.466Z,14.98
2022-11-02T12:10:53.092Z,18.45
2022-11-02T12:13:22.807Z,15.30
2022-11-02T12:16:18.571Z,17.55
2022-11-02T12:18:48.347Z,14.85
2022-11-02T12:21:20.997Z,21.52
2022-11-02T12:24:26.629Z,10.93
2022-11-02T12:26:53.263Z,12.65
2022-11-02T12:29:50.902Z,20.45
2022-11-02T12:32:26.539Z,13.75
2022-11-02T12:35:28.331Z,16.58
2022-11-02T12:38:05.079Z,21.15
2022-11-02T12:40:50.083Z,15.57
2022-11-02T12:43:35.062Z,18.92
2022-11-02T12:46:04.777Z,16.38
2022-11-02T12:48:57.589Z,19.05
2022-11-02T12:51:57.625Z,16.77
2022-11-02T12:54:32.169Z,39.75
2022-11-02T12:56:59.324Z,19.52
2022-11-02T12:59:32.970Z,14.60
2022-11-02T13:02:17.847Z,14.52
2022-11-02T13:04:57.636Z,14.45
2022-11-02T13:07:45.830Z,17.30
2022-11-02T13:10:53.894Z,18.10
2022-11-02T13:13:55.987Z,17.08
2022-11-02T13:16:45.766Z,14.48
2022-11-02T13:19:21.778Z,14.35
2022-11-02T13:21:55.695Z,17.42
2022-11-02T13:24:38.988Z,18.00
2022-11-02T13:27:14.779Z,19.08
2022-11-02T13:29:58.852Z,17.80
2022-11-02T13:35:13.448Z,18.08
2022-11-02T13:37:46.156Z,15.60
2022-11-02T13:40:29.160Z,21.48
2022-11-02T13:43:04.678Z,15.98
2022-11-02T13:45:34.760Z,15.25
2022-11-02T13:48:32.476Z,12.77
2022-11-02T13:51:04.767Z,14.55
2022-11-02T13:53:38.142Z,14.20
2022-11-02T14:08:26.534Z,19.98
2022-11-02T14:11:11.481Z,16.33
2022-11-02T14:13:56.568Z,19.50
2022-11-02T14:16:46.386Z,22.58
2022-11-02T14:19:32.365Z,23.27
2022-11-02T14:21:59.512Z,176.57
2022-11-02T14:24:47.931Z,46.85
2022-11-02T14:27:19.149Z,22.05
2022-11-02T14:29:46.244Z,27.10
2022-11-02T14:32:24.027Z,37.58
2022-11-02T14:35:21.484Z,18.08
2022-11-02T14:38:16.812Z,26.98
2022-11-02T14:41:12.801Z,29.90
2022-11-02T14:43:45.542Z,38.97
2022-11-02T14:46:21.098Z,28.50
2022-11-02T14:48:51.522Z,32.38
2022-11-02T14:51:23.520Z,42.03
2022-11-02T14:54:28.037Z,39.65
2022-11-02T14:56:59.999Z,37.30
2022-11-02T14:59:40.287Z,42.00
2022-11-02T15:02:19.008Z,27.52
2022-11-02T15:04:52.471Z,42.60
2022-11-02T15:07:24.252Z,28.55
2022-11-02T15:09:50.907Z,30.70
2022-11-02T15:12:32.172Z,38.78
2022-11-02T15:15:05.591Z,32.30
2022-11-02T15:17:32.245Z,38.90
2022-11-02T15:19:58.882Z,38.65
2022-11-02T15:22:37.090Z,49.13
2022-11-02T15:25:17.075Z,35.30
2022-11-02T15:27:45.138Z,36.53
2022-11-02T15:30:22.535Z,37.33
2022-11-02T15:33:00.416Z,35.85
2022-11-02T15:35:35.027Z,31.85
2022-11-02T15:38:16.915Z,31.95
2022-11-02T15:40:47.937Z,39.72
2022-11-02T15:43:39.312Z,63.45
2022-11-02T15:46:20.815Z,116.20
2022-11-02T15:51:23.770Z,167.65
2022-11-02T15:54:11.777Z,108.07
2022-11-02T15:56:46.245Z,115.75
2022-11-02T15:59:51.544Z,93.57
2022-11-02T16:02:29.836Z,76.88
2022-11-02T16:04:59.965Z,88.38
2022-11-02T16:07:33.388Z,81.32
2022-11-02T16:10:21.236Z,92.38
2022-11-02T16:12:56.419Z,90.40
2022-11-02T16:15:23.385Z,96.03
2022-11-02T16:17:50.478Z,88.70
2022-11-02T16:20:28.513Z,90.65
2022-11-02T16:23:04.141Z,92.30
2022-11-02T16:25:39.625Z,88.15
2022-11-02T16:28:28.285Z,90.50
2022-11-02T16:31:19.651Z,85.57
2022-11-02T16:33:55.585Z,88.70
2022-11-02T16:36:35.905Z,88.25
2022-11-02T16:39:07.565Z,79.45
2022-11-02T16:41:35.838Z,65.95
2022-11-02T16:44:17.746Z,67.43
2022-11-02T16:47:07.496Z,71.15
2022-11-02T16:49:55.476Z,50.33
2022-11-02T16:52:25.858Z,49.75
2022-11-02T16:54:52.547Z,51.58
2022-11-02T16:57:21.518Z,49.95
2022-11-02T17:00:04.340Z,53.70
2022-11-02T17:02:39.803Z,46.25
2022-11-02T17:05:15.303Z,49.42
2022-11-02T17:07:44.675Z,44.83
2022-11-02T17:10:24.502Z,49.58
2022-11-02T17:12:51.366Z,48.88
2022-11-02T17:15:22.051Z,46.10
2022-11-02T17:17:49.645Z,58.70
2022-11-02T17:20:22.253Z,57.72
2022-11-02T17:22:59.743Z,62.40
2022-11-02T17:25:31.124Z,59.83
2022-11-02T17:28:00.073Z,54.72
2022-11-02T17:30:30.241Z,69.95
2022-11-02T17:32:58.053Z,64.28
2022-11-02T17:35:27.376Z,61.55
2022-11-02T17:37:54.568Z,58.80
2022-11-02T17:40:22.600Z,57.53
2022-11-02T17:42:59.609Z,60.55
2022-11-02T17:45:27.252Z,61.67
2022-11-02T17:47:55.249Z,58.75
2022-11-02T17:50:23.205Z,54.47
2022-11-02T17:52:50.870Z,54.17
2022-11-02T17:55:27.081Z,50.28
2022-11-02T17:57:55.010Z,40.58
2022-11-02T18:00:23.546Z,44.55
2022-11-02T18:02:52.993Z,41.72
2022-11-02T18:05:36.238Z,42.17
2022-11-02T18:08:04.948Z,49.72
2022-11-02T18:10:40.245Z,41.15
2022-11-02T18:13:08.409Z,57.90
2022-11-02T18:15:35.284Z,45.38
2022-11-02T18:18:02.398Z,52.40
2022-11-02T18:20:30.779Z,45.10
2022-11-02T18:22:58.742Z,44.22
2022-11-02T18:25:31.949Z,49.38
2022-11-02T18:28:00.609Z,43.72
2022-11-02T18:30:29.996Z,41.85
2022-11-02T18:32:57.540Z,45.55
2022-11-02T18:35:25.122Z,44.95
2022-11-02T18:37:52.491Z,45.97
2022-11-02T18:40:20.906Z,40.95
2022-11-02T18:42:48.009Z,42.92
2022-11-02T18:45:16.212Z,41.47
2022-11-02T18:47:43.418Z,40.00
2022-11-02T18:50:13.435Z,45.17
2022-11-02T18:52:42.256Z,48.22
2022-11-02T18:55:09.176Z,47.05
2022-11-02T18:57:36.375Z,43.05
2022-11-02T19:00:04.501Z,39.20
2022-11-02T19:02:31.866Z,49.20
2022-11-02T19:04:59.135Z,42.83
2022-11-02T19:07:44.467Z,45.88
2022-11-02T19:10:11.559Z,44.30
2022-11-02T19:12:38.650Z,46.05
2022-11-02T19:15:06.323Z,52.05
2022-11-02T19:17:33.376Z,50.30
2022-11-02T19:20:00.522Z,46.85
2022-11-02T19:22:27.789Z,46.75
2022-11-02T19:24:54.960Z,47.13
2022-11-02T19:27:23.953Z,48.88
2022-11-02T19:29:51.679Z,51.05
2022-11-02T19:32:19.181Z,53.17
2022-11-02T19:34:46.711Z,50.50
2022-11-02T19:37:14.677Z,52.72
2022-11-02T19:39:41.861Z,48.97
2022-11-02T19:42:09.082Z,50.70
2022-11-02T19:44:42.276Z,55.47
2022-11-02T19:47:10.362Z,49.75
2022-11-02T19:49:37.517Z,54.67
2022-11-02T19:52:05.307Z,53.60
2022-11-02T19:54:32.408Z,49.10
2022-11-02T19:56:59.458Z,44.63
2022-11-02T19:59:26.700Z,52.78
2022-11-02T20:01:54.511Z,54.35
2022-11-02T20:04:21.322Z,45.80
2022-11-02T20:06:48.351Z,42.40
2022-11-02T20:09:18.271Z,44.85
2022-11-02T20:11:46.771Z,45.38
2022-11-02T20:14:16.035Z,49.28
2022-11-02T20:16:44.895Z,39.88
2022-11-02T20:19:12.482Z,45.15
2022-11-02T20:21:42.955Z,49.45
2022-11-02T20:24:11.275Z,42.42
2022-11-02T20:26:41.444Z,46.65
2022-11-02T20:29:12.265Z,39.72
2022-11-02T20:31:42.571Z,43.00
2022-11-02T20:34:09.899Z,40.78
2022-11-02T20:36:36.810Z,39.80
2022-11-02T20:39:05.921Z,38.00
2022-11-02T20:41:34.627Z,37.38
2022-11-02T20:44:01.488Z,37.15
2022-11-02T20:46:39.901Z,39.08
2022-11-02T20:49:21.226Z,35.13
2022-11-02T20:51:54.860Z,38.40
2022-11-02T20:54:22.970Z,37.15
2022-11-02T20:56:50.443Z,39.15
2022-11-02T20:59:17.950Z,38.53
2022-11-02T21:01:45.325Z,35.80
2022-11-02T21:04:19.443Z,34.70
2022-11-02T21:06:47.351Z,34.60
2022-11-02T21:09:14.383Z,36.65
2022-11-02T21:11:59.772Z,30.88
2022-11-02T21:14:26.582Z,32.97
2022-11-02T21:16:53.334Z,33.38
2022-11-02T21:19:20.044Z,32.55
2022-11-02T21:21:46.821Z,31.67
2022-11-02T21:24:13.810Z,32.17
2022-11-02T21:26:40.940Z,32.70
2022-11-02T21:29:08.908Z,31.85
2022-11-02T21:31:35.588Z,31.05
2022-11-02T21:34:02.265Z,29.60
2022-11-02T21:36:29.056Z,28.80
2022-11-02T21:38:56.215Z,26.83
2022-11-02T21:41:29.082Z,32.25
2022-11-02T21:43:56.132Z,26.17
2022-11-02T21:46:25.828Z,26.65
2022-11-02T21:48:52.698Z,25.33
2022-11-02T21:51:21.375Z,29.35
2022-11-02T21:53:49.787Z,27.67
2022-11-02T21:56:22.463Z,34.80
2022-11-02T21:58:49.779Z,37.60
2022-11-02T22:01:36.780Z,31.65
2022-11-02T22:04:04.728Z,26.83
2022-11-02T22:06:32.098Z,28.85
2022-11-02T22:09:00.051Z,28.65
2022-11-02T22:11:27.315Z,26.42
2022-11-02T22:13:55.922Z,25.13
2022-11-02T22:16:25.288Z,31.52
2022-11-02T22:18:55.207Z,31.30
2022-11-02T22:21:26.148Z,27.05
2022-11-02T22:23:53.131Z,30.88
2022-11-02T22:26:22.338Z,28.08
2022-11-02T22:28:49.663Z,30.67
2022-11-02T22:31:17.654Z,28.08
2022-11-02T22:33:46.130Z,31.50
2022-11-02T22:36:15.001Z,29.92
2022-11-02T22:38:48.802Z,28.23
2022-11-02T22:41:16.549Z,30.23
2022-11-02T22:43:43.715Z,31.13
2022-11-02T22:46:11.042Z,29.63
2022-11-02T22:48:37.715Z,28.60
2022-11-02T22:51:06.227Z,35.15
2022-11-02T22:53:33.452Z,29.98
2022-11-02T22:56:08.617Z,29.35
2022-11-02T22:58:37.125Z,31.50
2022-11-02T23:01:05.136Z,26.33
2022-11-02T23:03:33.339Z,24.95
2022-11-02T23:06:01.444Z,25.13
2022-11-02T23:08:29.709Z,25.20
2022-11-02T23:11:16.364Z,22.20
2022-11-02T23:13:44.160Z,27.65
2022-11-02T23:16:22.027Z,25.88
2022-11-02T23:19:25.494Z,26.15
2022-11-02T23:22:16.953Z,24.75
2022-11-02T23:25:08.718Z,26.58
2022-11-02T23:28:15.456Z,25.25
2022-11-02T23:31:01.591Z,23.73
2022-11-02T23:33:31.519Z,23.90
2022-11-02T23:36:11.397Z,24.23
2022-11-02T23:39:04.053Z,25.10
2022-11-02T23:41:32.849Z,26.73
2022-11-02T23:44:12.150Z,24.98
2022-11-02T23:46:46.961Z,22.90
2022-11-02T23:49:13.792Z,29.23
2022-11-02T23:51:58.989Z,27.73
2022-11-02T23:54:44.057Z,22.70
2022-11-02T23:57:11.268Z,24.88
2022-11-02T23:59:38.018Z,25.15
